西安 の空港の天気 - METARとTAF

西安咸陽国際空港 ( ZLXY / XIY ) - 中国 陝西省西安市
飛行場実況気象(Metar)
観測時間10/21 00:00 CST (10/20 16:00 UTC)
風向・風速北 1m/s
視程4000m
天気現象弱い雨 もや
全天の8割程度の雲 雲底高度 1220m
全天を覆う雲 雲底高度 2130m
気温10℃
湿度94%
気圧1025hPa
METARZLXY 201600Z 01001MPS 4000 -RA BR BKN040 OVC070 10/09 Q1025 NOSIG
過去の天気等 Google飛行場航空写真 Wunderground天気予報

過去48時間のMETAR

飛行場予報(TAF)
発表時間: 10/20 17:04 CST (10/20 09:04 UTC)
予報対象時間: 20日20時 CST ~ 21日20時 CST
風向・風速東北東 4m/s
視程3000m
天気現象煙霧
全天の4割程度の雲 雲底高度 1520m
TAF ZLXY 200904Z 2012/2112 06004MPS 3000 HZ SCT050 TX13/2107Z TN09/2022Z